Time;durP1;ratioP1;P1;durP2;ratioP2;P2;SDS_P1;SDS_P2;PMS_P1;PMS_P2;Temp;Humidity;BMP_temperature;BMP_pressure;BME280_temperature;BME280_humidity;BME280_pressure;Samples;Min_cycle;Max_cycle;Signal;HPM_P1;HPM_P2
2023/03/20 00:02:17;;;;;;;4.38;2.38;;;7.90;99.90;;;;;;7404743;19;19942;-73
2023/03/20 00:04:46;;;;;;;4.50;2.05;;;8.00;99.90;;;;;;7403722;19;19929;-75
2023/03/20 00:07:18;;;;;;;3.75;2.22;;;7.80;99.90;;;;;;7404527;19;19926;-72
2023/03/20 00:09:48;;;;;;;5.03;2.95;;;7.90;99.90;;;;;;7409176;19;19917;-73
2023/03/20 00:12:23;;;;;;;4.28;2.40;;;8.10;99.90;;;;;;7413031;19;19922;-72
2023/03/20 00:14:52;;;;;;;4.13;2.20;;;7.90;99.90;;;;;;7406708;19;20190;-73
2023/03/20 00:17:22;;;;;;;3.70;2.42;;;7.90;99.90;;;;;;7406836;19;19944;-72
2023/03/20 00:19:51;;;;;;;5.22;2.60;;;8.10;99.90;;;;;;7402798;19;19914;-72
2023/03/20 00:22:22;;;;;;;4.47;2.42;;;7.90;99.90;;;;;;7402384;19;19926;-73
2023/03/20 00:24:53;;;;;;;4.43;2.65;;;7.70;99.90;;;;;;7403518;19;20625;-73
2023/03/20 00:27:22;;;;;;;4.45;2.47;;;7.70;99.90;;;;;;7404121;19;19976;-73
2023/03/20 00:29:50;;;;;;;4.65;2.63;;;7.80;99.90;;;;;;7402948;19;19914;-73
2023/03/20 00:32:19;;;;;;;6.47;2.72;;;7.80;99.90;;;;;;7406568;19;19942;-73
2023/03/20 00:34:53;;;;;;;4.88;2.80;;;7.70;99.90;;;;;;7401390;19;19918;-73
2023/03/20 00:37:24;;;;;;;5.15;2.67;;;7.80;99.90;;;;;;7403829;19;20290;-73
2023/03/20 00:39:53;;;;;;;4.60;2.40;;;7.90;99.90;;;;;;7401722;19;20288;-73
2023/03/20 00:42:23;;;;;;;4.22;2.30;;;7.90;99.90;;;;;;7406989;19;19918;-73
2023/03/20 00:44:54;;;;;;;4.50;2.88;;;7.80;99.90;;;;;;7402524;19;19939;-73
2023/03/20 00:47:25;;;;;;;5.25;2.70;;;7.90;99.90;;;;;;7402613;19;19918;-73
2023/03/20 00:49:56;;;;;;;6.53;3.75;;;7.90;99.90;;;;;;7404881;19;20010;-73
2023/03/20 00:52:28;;;;;;;5.35;3.15;;;7.80;99.90;;;;;;7401653;19;19958;-73
2023/03/20 00:54:57;;;;;;;4.53;2.60;;;7.70;99.90;;;;;;7401896;19;19914;-73
2023/03/20 00:57:28;;;;;;;4.13;2.50;;;7.80;99.90;;;;;;7402706;19;19922;-73
2023/03/20 01:00:00;;;;;;;7.60;3.13;;;7.70;99.90;;;;;;7400040;19;19919;-73
2023/03/20 01:02:30;;;;;;;;;;;7.70;99.90;;;;;;7405977;19;19923;-72
2023/03/20 01:04:59;;;;;;;7.35;2.70;;;7.70;99.90;;;;;;7402162;19;19919;-72
2023/03/20 01:07:32;;;;;;;5.05;2.58;;;7.70;99.90;;;;;;7402158;19;20272;-72
2023/03/20 01:10:01;;;;;;;5.80;2.75;;;7.70;99.90;;;;;;7404244;19;19922;-72
2023/03/20 01:12:30;;;;;;;4.65;2.90;;;7.60;99.90;;;;;;7402630;19;19934;-72
2023/03/20 01:15:00;;;;;;;6.03;2.47;;;7.50;99.90;;;;;;7401642;19;19966;-72
2023/03/20 01:17:30;;;;;;;5.97;3.28;;;7.60;99.90;;;;;;7401031;19;19919;-72
2023/03/20 01:19:59;;;;;;;6.38;4.13;;;7.80;99.90;;;;;;7403347;19;19926;-72
2023/03/20 01:22:31;;;;;;;6.65;2.60;;;7.60;99.90;;;;;;7405585;19;19929;-72
2023/03/20 01:25:01;;;;;;;5.78;3.00;;;7.40;99.90;;;;;;7401202;19;19919;-72
2023/03/20 01:27:30;;;;;;;9.10;3.50;;;7.40;99.90;;;;;;7402581;19;19922;-73
2023/03/20 01:29:59;;;;;;;4.22;2.65;;;7.50;99.90;;;;;;7403529;19;19922;-72
2023/03/20 01:32:28;;;;;;;3.83;2.70;;;7.50;99.90;;;;;;7401763;19;19915;-73
2023/03/20 01:34:58;;;;;;;5.57;3.13;;;7.40;99.90;;;;;;7404046;19;19937;-72
2023/03/20 01:37:28;;;;;;;3.80;2.67;;;7.40;99.90;;;;;;7402216;19;19918;-72
2023/03/20 01:40:00;;;;;;;5.68;2.50;;;7.30;99.90;;;;;;7399340;19;20021;-72
2023/03/20 01:42:29;;;;;;;;;;;7.30;99.90;;;;;;7404979;19;19926;-72
2023/03/20 01:44:58;;;;;;;7.53;2.22;;;7.40;99.90;;;;;;7400656;19;20248;-72
2023/03/20 01:47:27;;;;;;;7.68;3.15;;;7.30;99.90;;;;;;7401405;19;19926;-72
2023/03/20 01:50:21;;;;;;;5.18;2.85;;;7.40;99.90;;;;;;7400402;19;20022;-73
2023/03/20 01:52:51;;;;;;;6.47;2.63;;;7.40;99.90;;;;;;7398695;19;19935;-72
2023/03/20 01:55:24;;;;;;;4.82;2.63;;;7.30;99.90;;;;;;7400957;19;19926;-72
2023/03/20 01:57:55;;;;;;;4.53;2.40;;;7.40;99.90;;;;;;7402833;19;20617;-72
2023/03/20 02:00:25;;;;;;;5.53;2.70;;;7.50;99.90;;;;;;7398440;19;19990;-72
2023/03/20 02:02:54;;;;;;;6.22;2.80;;;7.50;99.90;;;;;;7399958;19;19922;-73
2023/03/20 02:05:24;;;;;;;4.05;2.40;;;7.50;99.90;;;;;;7400639;19;19923;-73
2023/03/20 02:08:04;;;;;;;5.85;2.80;;;7.50;99.90;;;;;;7402230;19;19949;-72
2023/03/20 02:10:36;;;;;;;5.65;2.53;;;7.60;99.90;;;;;;7400187;19;19914;-73
2023/03/20 02:13:06;;;;;;;4.43;2.50;;;7.40;99.90;;;;;;7400004;19;19915;-72
2023/03/20 02:15:36;;;;;;;3.85;2.30;;;7.50;99.90;;;;;;7403092;19;19922;-73
2023/03/20 02:18:05;;;;;;;8.48;2.05;;;7.40;99.90;;;;;;7399795;19;19923;-72
2023/03/20 02:20:48;;;;;;;4.90;2.42;;;7.30;99.90;;;;;;7397791;19;19956;-72
2023/03/20 02:23:47;;;;;;;6.93;2.60;;;7.90;99.90;;;;;;7404003;19;20260;-72
2023/03/20 02:26:35;;;;;;;6.47;2.33;;;7.40;99.90;;;;;;7401219;19;20377;-73
2023/03/20 02:29:45;;;;;;;6.05;3.00;;;7.50;99.90;;;;;;7399439;19;19918;-73
2023/03/20 02:32:49;;;;;;;8.13;2.58;;;7.50;99.90;;;;;;7401925;19;19922;-73
2023/03/20 02:35:54;;;;;;;4.85;2.65;;;7.50;99.90;;;;;;7402762;19;19926;-72
2023/03/20 02:38:51;;;;;;;7.60;2.70;;;7.30;99.90;;;;;;7398379;19;19922;-72
2023/03/20 02:41:28;;;;;;;5.68;3.00;;;7.30;99.90;;;;;;7399415;19;19930;-72
2023/03/20 02:44:03;;;;;;;5.40;2.65;;;7.40;99.90;;;;;;7404291;19;20007;-73
2023/03/20 02:46:41;;;;;;;7.93;3.42;;;7.30;99.90;;;;;;7408948;19;19914;-73
2023/03/20 02:49:20;;;;;;;8.32;3.17;;;6.20;99.90;;;;;;7408189;19;19935;-72
2023/03/20 02:51:56;;;;;;;9.93;3.60;;;7.40;99.90;;;;;;7407470;19;20280;-72
2023/03/20 02:54:35;;;;;;;7.00;3.90;;;7.30;99.90;;;;;;7405161;19;19978;-72
2023/03/20 02:57:07;;;;;;;8.15;3.65;;;7.40;99.90;;;;;;7405400;19;20290;-72
2023/03/20 02:59:43;;;;;;;14.80;3.85;;;7.40;99.90;;;;;;7403360;19;19923;-72
2023/03/20 03:02:15;;;;;;;7.43;3.45;;;7.50;99.90;;;;;;7407894;19;19928;-72
2023/03/20 03:04:50;;;;;;;6.55;3.45;;;7.40;99.90;;;;;;7404847;19;19922;-72
2023/03/20 03:07:23;;;;;;;12.63;3.90;;;7.70;99.90;;;;;;7406397;19;19926;-72
2023/03/20 03:10:01;;;;;;;11.20;4.47;;;7.50;99.90;;;;;;7407401;19;19923;-73
2023/03/20 03:12:33;;;;;;;11.75;4.07;;;7.40;99.90;;;;;;7407427;19;19918;-72
2023/03/20 03:15:06;;;;;;;7.13;3.50;;;7.60;99.90;;;;;;7408094;19;19982;-72
2023/03/20 03:17:38;;;;;;;8.38;3.58;;;7.40;99.90;;;;;;7403029;19;19919;-72
2023/03/20 03:20:16;;;;;;;6.25;3.88;;;7.40;99.90;;;;;;7403485;19;20332;-73
2023/03/20 03:22:45;;;;;;;9.90;3.55;;;7.40;99.90;;;;;;7407580;19;19928;-74
2023/03/20 03:25:17;;;;;;;9.82;3.95;;;8.50;99.90;;;;;;7404602;19;19946;-73
2023/03/20 03:27:49;;;;;;;9.93;4.10;;;7.40;99.90;;;;;;7406629;19;19947;-73
2023/03/20 03:30:23;;;;;;;12.60;3.83;;;7.90;99.90;;;;;;7404750;19;19918;-73
2023/03/20 03:32:59;;;;;;;10.52;3.55;;;7.30;99.90;;;;;;7405751;19;19978;-73
2023/03/20 03:35:28;;;;;;;12.90;4.95;;;7.50;99.90;;;;;;7404418;19;20525;-72
2023/03/20 03:38:02;;;;;;;11.80;3.95;;;7.70;99.90;;;;;;7406526;19;19932;-72
2023/03/20 03:40:41;;;;;;;9.55;4.80;;;7.40;99.90;;;;;;7403335;19;19919;-73
2023/03/20 03:43:18;;;;;;;7.57;3.90;;;7.30;99.90;;;;;;7403988;19;19921;-73
2023/03/20 03:45:51;;;;;;;12.27;3.95;;;7.40;99.90;;;;;;7404126;19;19922;-73
2023/03/20 03:48:22;;;;;;;10.18;4.25;;;7.80;99.90;;;;;;7405485;19;20372;-73
2023/03/20 03:50:55;;;;;;;10.43;3.97;;;7.30;99.90;;;;;;7405153;19;19923;-73
2023/03/20 03:53:28;;;;;;;14.25;4.72;;;8.40;99.90;;;;;;7404023;19;19915;-73
2023/03/20 03:56:03;;;;;;;8.68;4.55;;;7.40;99.90;;;;;;7401845;19;19923;-73
2023/03/20 03:58:35;;;;;;;10.98;4.53;;;7.30;99.90;;;;;;7405494;19;19929;-73
2023/03/20 04:01:06;;;;;;;14.30;4.85;;;7.40;99.90;;;;;;7404893;19;20468;-73
2023/03/20 04:03:40;;;;;;;12.18;4.85;;;7.40;99.90;;;;;;7403499;19;19919;-73
2023/03/20 04:06:13;;;;;;;12.68;4.82;;;7.40;99.90;;;;;;7403045;19;20347;-73
2023/03/20 04:08:42;;;;;;;13.25;4.70;;;7.40;99.90;;;;;;7407331;19;20507;-74
2023/03/20 04:11:18;;;;;;;10.48;4.88;;;7.50;99.90;;;;;;7404275;19;19911;-73
2023/03/20 04:13:49;;;;;;;12.07;4.97;;;7.40;99.90;;;;;;7403470;19;19925;-73
2023/03/20 04:16:19;;;;;;;11.40;5.15;;;7.30;99.90;;;;;;7402706;19;19922;-73
2023/03/20 04:18:48;;;;;;;8.45;4.95;;;7.30;99.90;;;;;;7407063;19;19926;-73
2023/03/20 04:21:18;;;;;;;12.40;5.25;;;7.30;99.90;;;;;;7402094;19;19926;-73
2023/03/20 04:23:47;;;;;;;13.23;5.63;;;7.40;99.90;;;;;;7403324;19;19923;-73
2023/03/20 04:26:20;;;;;;;18.60;5.75;;;7.20;99.90;;;;;;7405308;19;19925;-73
2023/03/20 04:28:48;;;;;;;13.88;5.53;;;7.30;99.90;;;;;;7406992;19;20277;-73
2023/03/20 04:31:17;;;;;;;15.38;5.38;;;7.40;99.90;;;;;;7403809;19;19926;-73
2023/03/20 04:33:46;;;;;;;19.15;6.30;;;8.20;99.90;;;;;;7402956;19;19923;-73
2023/03/20 04:36:15;;;;;;;14.10;5.45;;;7.80;99.90;;;;;;7403489;19;19918;-73
2023/03/20 04:38:44;;;;;;;13.75;4.72;;;7.30;99.90;;;;;;7406710;19;19934;-73
2023/03/20 04:41:13;;;;;;;11.05;5.43;;;7.30;99.90;;;;;;7401462;19;19926;-73
2023/03/20 04:43:45;;;;;;;7.85;4.63;;;7.50;99.90;;;;;;7402532;19;19923;-73
2023/03/20 04:46:14;;;;;;;9.85;4.90;;;7.30;99.90;;;;;;7402828;19;19915;-73
2023/03/20 04:48:43;;;;;;;9.38;5.43;;;7.40;99.90;;;;;;7406587;19;19919;-73
2023/03/20 04:51:12;;;;;;;10.55;4.97;;;7.90;99.90;;;;;;7403941;19;19921;-73
2023/03/20 04:53:40;;;;;;;11.05;4.25;;;7.40;99.90;;;;;;7402056;19;19930;-73
2023/03/20 04:56:10;;;;;;;11.23;4.57;;;7.30;99.90;;;;;;7402825;19;19954;-73
2023/03/20 04:58:39;;;;;;;9.25;4.45;;;7.50;99.90;;;;;;7404944;19;19929;-74
2023/03/20 05:01:11;;;;;;;10.75;4.18;;;7.30;99.90;;;;;;7402008;19;19929;-73
2023/03/20 05:03:40;;;;;;;10.15;4.47;;;7.80;99.90;;;;;;7401839;19;19915;-73
2023/03/20 05:06:10;;;;;;;8.55;4.47;;;7.40;99.90;;;;;;7404709;19;19926;-74
2023/03/20 05:08:39;;;;;;;11.88;4.80;;;7.40;99.90;;;;;;7405115;19;19945;-73
2023/03/20 05:11:09;;;;;;;7.10;3.80;;;7.40;99.90;;;;;;7405048;19;20373;-73
2023/03/20 05:13:38;;;;;;;10.02;4.45;;;7.50;99.90;;;;;;7401601;19;20265;-73
2023/03/20 05:16:11;;;;;;;11.40;4.20;;;7.40;99.90;;;;;;7404404;19;19954;-73
2023/03/20 05:18:39;;;;;;;;;;;7.50;99.90;;;;;;7406051;19;19923;-73
2023/03/20 05:21:09;;;;;;;6.63;4.15;;;7.50;99.90;;;;;;7400295;19;19918;-73
2023/03/20 05:23:38;;;;;;;9.05;4.32;;;7.40;99.90;;;;;;7402604;19;20387;-73
2023/03/20 05:26:08;;;;;;;10.50;4.40;;;7.50;99.90;;;;;;7403585;19;19914;-74
2023/03/20 05:28:36;;;;;;;8.05;4.15;;;7.40;99.90;;;;;;7404952;19;20268;-74
2023/03/20 05:31:06;;;;;;;10.70;4.43;;;7.30;99.90;;;;;;7401922;19;19920;-73
2023/03/20 05:33:37;;;;;;;11.60;4.68;;;7.40;99.90;;;;;;7404842;19;19938;-73
2023/03/20 05:36:07;;;;;;;11.48;5.03;;;7.40;99.90;;;;;;7406514;19;19919;-73
2023/03/20 05:38:36;;;;;;;10.85;4.47;;;7.50;99.90;;;;;;7402913;19;19919;-73
2023/03/20 05:41:05;;;;;;;8.65;4.32;;;7.40;99.90;;;;;;7399275;19;19929;-73
2023/03/20 05:43:34;;;;;;;11.32;4.00;;;7.40;99.90;;;;;;7404269;19;19929;-73
2023/03/20 05:46:03;;;;;;;9.13;5.03;;;7.40;99.90;;;;;;7402144;19;20242;-73
2023/03/20 05:48:32;;;;;;;10.77;4.65;;;7.40;99.90;;;;;;7406425;19;20637;-73
2023/03/20 05:51:03;;;;;;;12.13;4.43;;;7.40;99.90;;;;;;7400823;19;20392;-73
2023/03/20 05:53:32;;;;;;;11.15;4.45;;;7.60;99.90;;;;;;7400819;19;20284;-74
2023/03/20 05:56:01;;;;;;;7.15;4.15;;;7.50;99.90;;;;;;7403025;19;20279;-74
2023/03/20 05:58:30;;;;;;;8.80;3.75;;;7.60;99.90;;;;;;7400167;19;19942;-74
2023/03/20 06:00:59;;;;;;;6.60;3.78;;;7.50;99.90;;;;;;7402778;19;19924;-73
2023/03/20 06:03:28;;;;;;;9.48;4.32;;;7.30;99.90;;;;;;7403182;19;19930;-74
2023/03/20 06:05:57;;;;;;;7.80;4.05;;;7.50;99.90;;;;;;7400939;19;19919;-74
2023/03/20 06:08:29;;;;;;;9.43;4.70;;;7.40;99.90;;;;;;7399667;19;19926;-74
2023/03/20 06:10:58;;;;;;;10.27;4.63;;;7.40;99.90;;;;;;7399770;19;19943;-73
2023/03/20 06:13:27;;;;;;;9.63;3.30;;;7.40;99.90;;;;;;7402695;19;19943;-72
2023/03/20 06:15:57;;;;;;;10.75;3.95;;;7.50;99.90;;;;;;7401986;19;20253;-72
2023/03/20 06:18:26;;;;;;;7.70;3.42;;;7.70;99.90;;;;;;7398335;19;20356;-72
2023/03/20 06:20:55;;;;;;;9.85;3.72;;;7.40;99.90;;;;;;7406031;19;19930;-72
2023/03/20 06:23:24;;;;;;;12.70;4.45;;;7.40;99.90;;;;;;7406606;19;20636;-72
2023/03/20 06:25:55;;;;;;;8.48;3.88;;;7.50;99.90;;;;;;7406221;19;19966;-72
2023/03/20 06:28:25;;;;;;;8.32;3.58;;;7.30;99.90;;;;;;7407928;19;19941;-74
2023/03/20 06:30:54;;;;;;;6.95;3.53;;;7.40;99.90;;;;;;7406275;19;19924;-72
2023/03/20 06:33:23;;;;;;;9.55;3.85;;;8.50;99.90;;;;;;7408185;19;19914;-72
2023/03/20 06:35:52;;;;;;;8.02;3.47;;;7.40;99.90;;;;;;7406782;19;20280;-73
2023/03/20 06:38:21;;;;;;;11.32;4.40;;;7.50;99.90;;;;;;7406025;19;19918;-73
2023/03/20 06:40:50;;;;;;;6.45;3.55;;;7.40;99.90;;;;;;7404830;19;19918;-72
2023/03/20 06:43:22;;;;;;;7.80;3.63;;;8.70;99.90;;;;;;7406107;19;19914;-72
2023/03/20 06:45:50;;;;;;;6.68;3.40;;;7.60;99.90;;;;;;7405062;19;19922;-72
2023/03/20 06:48:20;;;;;;;9.88;3.58;;;7.50;99.90;;;;;;7407108;19;19925;-72
2023/03/20 06:50:50;;;;;;;7.68;3.53;;;7.40;99.90;;;;;;7405575;19;19922;-72
2023/03/20 06:53:19;;;;;;;9.60;4.07;;;7.50;99.90;;;;;;7408503;19;19931;-72
2023/03/20 06:55:50;;;;;;;5.85;3.30;;;7.50;99.90;;;;;;7409012;19;19918;-73
2023/03/20 06:58:21;;;;;;;11.75;3.83;;;7.40;99.90;;;;;;7405235;19;19919;-72
2023/03/20 07:00:51;;;;;;;8.98;4.25;;;7.50;99.90;;;;;;7404993;19;20641;-73
2023/03/20 07:03:20;;;;;;;8.40;3.55;;;7.50;99.90;;;;;;7404763;19;19918;-73
2023/03/20 07:05:49;;;;;;;8.98;4.00;;;7.40;99.90;;;;;;7405595;19;19935;-73
2023/03/20 07:08:18;;;;;;;7.15;3.70;;;7.50;99.90;;;;;;7406270;19;19927;-73
2023/03/20 07:10:47;;;;;;;12.00;4.35;;;7.50;99.90;;;;;;7408241;19;19925;-73
2023/03/20 07:13:16;;;;;;;10.00;4.07;;;7.40;99.90;;;;;;7407892;19;20300;-73
2023/03/20 07:15:47;;;;;;;8.25;3.85;;;7.60;99.90;;;;;;7407891;19;20380;-71
2023/03/20 07:18:17;;;;;;;15.07;4.47;;;7.40;99.90;;;;;;7404235;19;19986;-71
2023/03/20 07:20:46;;;;;;;12.48;4.50;;;7.50;99.90;;;;;;7408802;19;19911;-71
2023/03/20 07:23:15;;;;;;;10.27;4.57;;;7.60;99.90;;;;;;7405641;19;19919;-74
2023/03/20 07:25:44;;;;;;;11.27;4.65;;;7.60;99.90;;;;;;7407713;19;19942;-73
2023/03/20 07:28:13;;;;;;;9.13;4.47;;;8.60;99.90;;;;;;7407529;19;19931;-74
2023/03/20 07:30:42;;;;;;;9.85;4.40;;;7.70;99.90;;;;;;7406239;19;19922;-74
2023/03/20 07:33:14;;;;;;;7.28;4.15;;;7.70;99.90;;;;;;7404218;19;19919;-74
2023/03/20 07:35:43;;;;;;;10.50;4.55;;;7.60;99.90;;;;;;7404286;19;19923;-73
2023/03/20 07:38:12;;;;;;;10.30;4.43;;;7.60;99.90;;;;;;7403986;19;19919;-73
2023/03/20 07:40:40;;;;;;;9.98;4.57;;;7.70;99.90;;;;;;7404274;19;20366;-73
2023/03/20 07:43:09;;;;;;;7.78;4.22;;;7.70;99.90;;;;;;7403763;19;19918;-73
2023/03/20 07:45:38;;;;;;;10.77;5.18;;;7.60;99.90;;;;;;7406003;19;19930;-74
2023/03/20 07:48:08;;;;;;;10.38;4.75;;;7.70;99.90;;;;;;7405841;19;19922;-74
2023/03/20 07:50:39;;;;;;;9.73;4.60;;;9.80;99.90;;;;;;7405434;19;19953;-74
2023/03/20 07:53:08;;;;;;;8.40;4.40;;;7.70;99.90;;;;;;7404544;19;19918;-73
2023/03/20 07:55:37;;;;;;;10.23;4.57;;;7.70;99.90;;;;;;7403819;19;19922;-76
2023/03/20 07:58:07;;;;;;;10.20;5.05;;;7.80;99.90;;;;;;7403622;19;19918;-73
2023/03/20 08:00:36;;;;;;;10.57;5.15;;;7.80;99.90;;;;;;7401378;19;20281;-73
2023/03/20 08:03:05;;;;;;;9.95;3.97;;;7.90;99.90;;;;;;7402275;19;19922;-73
2023/03/20 08:05:35;;;;;;;9.85;4.95;;;7.90;99.90;;;;;;7407039;19;20261;-74
2023/03/20 08:08:06;;;;;;;13.65;5.10;;;7.90;99.90;;;;;;7407285;19;19921;-73
2023/03/20 08:10:35;;;;;;;9.43;4.57;;;7.80;99.90;;;;;;7406780;19;19923;-73
2023/03/20 08:13:04;;;;;;;10.48;4.57;;;7.90;99.90;;;;;;7404886;19;20040;-73
2023/03/20 08:15:33;;;;;;;10.20;4.80;;;7.90;99.90;;;;;;7403186;19;19915;-74
2023/03/20 08:18:02;;;;;;;11.77;5.13;;;8.00;99.90;;;;;;7403133;19;19921;-73
2023/03/20 08:20:32;;;;;;;9.63;4.63;;;8.40;99.90;;;;;;7405063;19;19923;-74
2023/03/20 08:23:01;;;;;;;12.45;5.32;;;8.00;99.90;;;;;;7402658;19;19919;-74
2023/03/20 08:25:33;;;;;;;9.98;4.93;;;7.90;99.90;;;;;;7402657;19;19929;-75
2023/03/20 08:28:02;;;;;;;11.60;4.78;;;8.10;99.90;;;;;;7403202;19;20268;-75
2023/03/20 08:30:31;;;;;;;8.70;4.97;;;8.20;99.90;;;;;;7402401;19;20356;-75
2023/03/20 08:33:01;;;;;;;11.13;4.72;;;8.20;99.90;;;;;;7404750;19;19939;-74
2023/03/20 08:35:29;;;;;;;11.02;4.60;;;8.20;99.90;;;;;;7404712;19;19923;-76
2023/03/20 08:37:58;;;;;;;10.73;4.88;;;8.20;99.90;;;;;;7404199;19;19926;-75
2023/03/20 08:40:27;;;;;;;11.68;4.75;;;8.30;99.90;;;;;;7404399;19;19922;-74
2023/03/20 08:42:59;;;;;;;9.40;3.97;;;8.30;99.90;;;;;;7403710;19;19923;-74
2023/03/20 08:45:28;;;;;;;12.07;5.07;;;8.40;99.90;;;;;;7403756;19;19926;-74
2023/03/20 08:47:57;;;;;;;10.27;4.40;;;8.40;99.90;;;;;;7402303;19;19918;-75
2023/03/20 08:50:26;;;;;;;11.02;4.82;;;7.60;99.90;;;;;;7406200;19;19923;-75
2023/03/20 08:52:55;;;;;;;13.18;4.63;;;8.40;99.90;;;;;;7402430;19;19922;-74
2023/03/20 08:55:24;;;;;;;13.60;5.28;;;8.50;99.90;;;;;;7401501;19;19926;-75
2023/03/20 08:57:53;;;;;;;10.30;4.40;;;8.40;99.90;;;;;;7404152;19;19929;-75
2023/03/20 09:00:26;;;;;;;8.80;4.13;;;8.50;99.90;;;;;;7403876;19;19946;-75
2023/03/20 09:02:55;;;;;;;9.80;4.20;;;8.50;99.90;;;;;;7402817;19;19979;-75
2023/03/20 09:05:24;;;;;;;8.38;4.32;;;8.60;99.90;;;;;;7402959;19;19918;-76
2023/03/20 09:07:53;;;;;;;10.38;4.40;;;6.80;99.90;;;;;;7391821;19;20502;-74
2023/03/20 09:10:22;;;;;;;9.43;4.82;;;8.60;99.90;;;;;;7400771;19;20513;-74
2023/03/20 09:12:50;;;;;;;13.73;4.60;;;8.60;99.90;;;;;;7401766;19;20264;-74
2023/03/20 09:15:19;;;;;;;10.38;4.65;;;8.80;99.90;;;;;;7401818;19;19919;-75
2023/03/20 09:17:51;;;;;;;7.68;4.50;;;8.80;99.90;;;;;;7402606;19;19915;-75
2023/03/20 09:20:20;;;;;;;13.68;5.00;;;8.70;99.90;;;;;;7403012;19;19941;-75
2023/03/20 09:22:50;;;;;;;8.80;4.50;;;8.80;99.90;;;;;;7400801;19;19919;-74
2023/03/20 09:25:19;;;;;;;11.13;4.65;;;8.80;99.90;;;;;;7403896;19;19918;-76
2023/03/20 09:27:48;;;;;;;9.43;4.53;;;9.30;99.90;;;;;;7402991;19;19978;-74
2023/03/20 09:30:17;;;;;;;10.35;4.28;;;8.80;99.90;;;;;;7402706;19;19918;-75
2023/03/20 09:32:46;;;;;;;7.80;4.75;;;9.00;99.90;;;;;;7403086;19;19930;-75
2023/03/20 09:35:18;;;;;;;12.85;4.38;;;9.00;99.90;;;;;;7404914;19;19938;-74
2023/03/20 09:37:47;;;;;;;;;;;9.00;99.90;;;;;;7405125;19;19924;-74
2023/03/20 09:40:26;;;;;;;9.68;4.65;;;9.00;99.90;;;;;;7402530;19;19927;-74
2023/03/20 09:43:02;;;;;;;11.85;4.47;;;9.10;99.90;;;;;;7401415;19;19937;-74
2023/03/20 09:45:45;;;;;;;13.82;5.63;;;9.30;99.90;;;;;;7400522;19;20611;-75
2023/03/20 09:48:21;;;;;;;12.10;4.78;;;9.40;99.90;;;;;;7402462;19;19974;-76
2023/03/20 09:51:00;;;;;;;7.00;3.70;;;9.50;99.90;;;;;;7402676;19;19930;-74
2023/03/20 09:53:33;;;;;;;9.30;4.18;;;9.50;99.90;;;;;;7399409;19;19990;-74
2023/03/20 09:56:02;;;;;;;10.02;4.75;;;9.50;99.90;;;;;;7402941;19;19933;-75
2023/03/20 09:58:34;;;;;;;10.40;4.30;;;9.10;99.90;;;;;;7401569;19;19927;-76
2023/03/20 10:01:07;;;;;;;11.82;4.00;;;9.20;99.90;;;;;;7400154;19;19923;-75
2023/03/20 10:03:45;;;;;;;10.38;4.40;;;9.30;99.90;;;;;;7400865;19;19923;-75
2023/03/20 10:06:18;;;;;;;14.32;4.85;;;9.30;99.90;;;;;;7404663;19;19952;-74
2023/03/20 10:08:48;;;;;;;9.80;4.05;;;9.40;99.90;;;;;;7400038;19;19931;-74
2023/03/20 10:11:42;;;;;;;9.23;4.22;;;9.50;99.90;;;;;;7399800;19;20010;-74
2023/03/20 10:14:23;;;;;;;9.50;3.67;;;9.60;99.90;;;;;;7402415;19;19943;-74
2023/03/20 10:17:08;;;;;;;8.07;3.70;;;9.60;99.90;;;;;;7398737;19;19990;-75
2023/03/20 10:19:46;;;;;;;8.57;3.70;;;9.70;99.90;;;;;;7399642;19;19911;-76
2023/03/20 10:22:25;;;;;;;7.63;3.80;;;9.90;99.90;;;;;;7399024;19;19914;-75
2023/03/20 10:25:00;;;;;;;8.43;4.35;;;9.90;99.90;;;;;;7402333;19;19978;-75
2023/03/20 10:27:35;;;;;;;9.68;4.20;;;9.90;99.90;;;;;;7402354;19;20272;-75
2023/03/20 10:30:21;;;;;;;11.18;4.60;;;9.90;99.90;;;;;;7399421;19;20022;-75
2023/03/20 10:32:58;;;;;;;9.75;4.45;;;9.90;99.90;;;;;;7399261;19;19927;-74
2023/03/20 10:35:34;;;;;;;10.55;4.00;;;9.90;99.90;;;;;;7398988;19;20009;-75
2023/03/20 10:38:25;;;;;;;8.65;3.70;;;10.00;99.90;;;;;;7399421;19;19918;-75
2023/03/20 10:40:56;;;;;;;8.40;4.18;;;9.80;99.90;;;;;;7397990;19;20349;-75
2023/03/20 10:43:31;;;;;;;6.43;4.00;;;9.80;99.90;;;;;;7399452;19;19922;-75
2023/03/20 10:46:06;;;;;;;8.73;3.85;;;9.80;99.90;;;;;;7399519;19;19918;-75
2023/03/20 10:48:39;;;;;;;6.90;3.28;;;9.90;99.90;;;;;;7399804;19;19923;-75
2023/03/20 10:51:14;;;;;;;10.40;3.88;;;9.80;99.90;;;;;;7399554;19;20334;-75
2023/03/20 10:53:50;;;;;;;6.57;3.15;;;9.90;99.90;;;;;;7398968;19;20001;-75
2023/03/20 10:56:28;;;;;;;8.05;3.55;;;9.80;99.90;;;;;;7402383;19;19930;-76
2023/03/20 10:59:02;;;;;;;8.25;3.67;;;9.90;99.90;;;;;;7399193;19;19911;-75
2023/03/20 11:01:31;;;;;;;11.57;4.05;;;9.80;99.90;;;;;;7399162;19;19919;-75
2023/03/20 11:04:00;;;;;;;8.63;4.03;;;9.90;99.90;;;;;;7396863;19;19915;-75
2023/03/20 11:06:33;;;;;;;9.40;4.20;;;9.80;99.90;;;;;;7409314;19;19999;-75
2023/03/20 11:09:18;;;;;;;9.60;4.00;;;9.90;99.90;;;;;;7410252;19;19922;-75
2023/03/20 11:11:48;;;;;;;8.45;4.97;;;9.70;99.90;;;;;;7409327;19;19922;-76
2023/03/20 11:14:21;;;;;;;10.35;4.50;;;9.70;99.90;;;;;;7405906;19;19921;-76
2023/03/20 11:16:51;;;;;;;9.18;4.30;;;9.60;99.90;;;;;;7404353;19;20335;-75
2023/03/20 11:19:23;;;;;;;11.98;4.53;;;9.50;99.90;;;;;;7398384;19;20300;-76
2023/03/20 11:21:54;;;;;;;;;;;9.80;99.90;;;;;;7400853;19;20337;-76
2023/03/20 11:24:34;;;;;;;11.50;5.43;;;9.70;99.90;;;;;;7405362;19;19911;-76
2023/03/20 11:27:08;;;;;;;11.05;5.80;;;9.60;99.90;;;;;;7404683;19;20270;-77
2023/03/20 11:29:39;;;;;;;14.15;6.13;;;9.30;99.90;;;;;;7403561;19;19925;-76
2023/03/20 11:32:19;;;;;;;9.25;5.22;;;9.50;99.90;;;;;;7407915;19;19910;-76
2023/03/20 11:34:48;;;;;;;9.40;5.00;;;9.50;99.90;;;;;;7407536;19;19929;-77
2023/03/20 11:37:25;;;;;;;11.15;5.10;;;9.70;99.90;;;;;;7405295;19;19927;-76
2023/03/20 11:40:16;;;;;;;11.68;4.93;;;9.40;99.90;;;;;;7406744;19;19922;-76
2023/03/20 11:42:55;;;;;;;9.85;5.10;;;9.50;99.90;;;;;;7402748;19;19951;-76
2023/03/20 11:45:25;;;;;;;11.90;5.82;;;9.40;99.90;;;;;;7404733;19;19923;-78
2023/03/20 11:47:56;;;;;;;9.40;5.85;;;9.40;99.90;;;;;;7405313;19;19974;-79
2023/03/20 11:50:33;;;;;;;10.98;5.57;;;9.40;99.90;;;;;;7407487;19;19919;-79
2023/03/20 11:53:03;;;;;;;14.55;5.68;;;9.50;99.90;;;;;;7405118;19;19970;-78
2023/03/20 11:55:37;;;;;;;14.57;5.47;;;9.40;99.90;;;;;;7405750;19;19923;-78
2023/03/20 11:58:07;;;;;;;13.65;5.45;;;9.50;99.90;;;;;;7403635;19;19943;-78
2023/03/20 12:00:40;;;;;;;9.27;5.50;;;9.60;99.90;;;;;;7403719;19;19915;-79
2023/03/20 12:03:40;;;;;;;13.75;5.28;;;9.60;99.90;;;;;;7401660;19;19919;-78
2023/03/20 12:06:10;;;;;;;;;;;9.60;99.90;;;;;;7409754;19;19933;-78
2023/03/20 12:08:42;;;;;;;12.43;4.55;;;9.60;99.90;;;;;;7405977;19;19919;-77
2023/03/20 12:11:27;;;;;;;11.80;5.53;;;9.40;99.90;;;;;;7403452;19;19924;-78
2023/03/20 12:14:01;;;;;;;8.50;4.30;;;9.40;99.90;;;;;;7405208;19;19932;-78
2023/03/20 12:16:31;;;;;;;9.85;4.78;;;9.40;99.90;;;;;;7401306;19;20384;-78
2023/03/20 12:19:04;;;;;;;8.15;4.88;;;9.50;99.90;;;;;;7406130;19;19933;-78
2023/03/20 12:21:42;;;;;;;11.65;4.85;;;9.40;99.90;;;;;;7407479;19;19922;-78
2023/03/20 12:24:15;;;;;;;;;;;9.50;99.90;;;;;;7403624;19;19923;-78
2023/03/20 12:26:53;;;;;;;9.95;4.45;;;9.40;99.90;;;;;;7405419;19;20253;-78
2023/03/20 12:29:30;;;;;;;6.93;3.72;;;9.50;99.90;;;;;;7404331;19;19911;-81
2023/03/20 12:32:05;;;;;;;8.57;3.70;;;9.50;99.90;;;;;;7404762;19;19927;-76
2023/03/20 12:34:39;;;;;;;5.35;2.78;;;9.50;99.90;;;;;;7404412;19;19920;-76
2023/03/20 12:37:12;;;;;;;8.45;3.25;;;9.50;99.90;;;;;;7405109;19;19922;-76
2023/03/20 12:39:49;;;;;;;5.93;3.38;;;9.40;99.90;;;;;;7402917;19;19915;-76
2023/03/20 12:42:34;;;;;;;6.25;3.40;;;7.70;99.90;;;;;;7406526;19;19946;-76
2023/03/20 12:45:10;;;;;;;6.50;2.55;;;9.30;99.90;;;;;;7403462;19;19922;-76
2023/03/20 12:47:58;;;;;;;5.20;3.33;;;9.20;99.90;;;;;;7402379;19;19923;-76
2023/03/20 12:50:36;;;;;;;6.38;2.70;;;9.10;99.90;;;;;;7403757;19;19923;-76
2023/03/20 12:53:34;;;;;;;6.80;3.55;;;9.10;99.90;;;;;;7402472;19;19911;-76
2023/03/20 12:56:14;;;;;;;7.40;3.47;;;9.10;99.90;;;;;;7405629;19;19919;-76
2023/03/20 12:58:49;;;;;;;7.10;3.35;;;8.90;99.90;;;;;;7405699;19;19918;-77
2023/03/20 13:01:22;;;;;;;9.63;3.47;;;9.10;99.90;;;;;;7400425;19;20351;-76
2023/03/20 13:04:14;;;;;;;10.43;3.60;;;9.10;99.90;;;;;;7405153;19;19937;-76
2023/03/20 13:06:53;;;;;;;8.05;3.72;;;9.10;99.90;;;;;;7402816;19;20348;-76
2023/03/20 13:09:50;;;;;;;7.88;3.00;;;10.60;99.90;;;;;;7405927;19;19918;-76
2023/03/20 13:12:31;;;;;;;5.75;2.75;;;9.10;99.90;;;;;;7402441;19;20485;-76
2023/03/20 13:15:17;;;;;;;11.35;3.42;;;9.00;99.90;;;;;;7401448;19;19922;-76
2023/03/20 13:17:51;;;;;;;8.10;3.17;;;9.00;99.90;;;;;;7403126;19;19964;-76
2023/03/20 13:20:28;;;;;;;7.10;3.10;;;9.10;99.90;;;;;;7400953;19;19947;-76
2023/03/20 13:23:08;;;;;;;8.23;3.50;;;9.00;99.90;;;;;;7399451;19;19943;-75
2023/03/20 13:25:52;;;;;;;5.60;2.65;;;8.90;99.90;;;;;;7404523;19;19929;-75